Time;durP1;ratioP1;P1;durP2;ratioP2;P2;SDS_P1;SDS_P2;PMS_P1;PMS_P2;Temp;Humidity;BMP_temperature;BMP_pressure;BME280_temperature;BME280_humidity;BME280_pressure;Samples;Min_cycle;Max_cycle;Signal;HPM_P1;HPM_P2
2021/07/19 00:01:52;;;;;;;5.90;5.30;;;;;;;18.43;100.00;99359.94;10416400;28;20180;-78
2021/07/19 00:07:12;;;;;;;5.50;5.07;;;;;;;18.25;100.00;99358.94;10416986;28;20180;-79
2021/07/19 00:12:31;;;;;;;7.50;5.17;;;;;;;18.17;100.00;99366.66;10415065;28;20585;-77
2021/07/19 00:17:52;;;;;;;5.87;5.27;;;;;;;18.18;100.00;99356.31;10416785;28;20633;-77
2021/07/19 00:23:11;;;;;;;6.17;5.27;;;;;;;18.08;100.00;99357.41;10427904;28;20191;-79
2021/07/19 00:28:30;;;;;;;9.93;5.57;;;;;;;18.10;100.00;99357.72;10437108;28;20220;-78
2021/07/19 00:33:49;;;;;;;6.40;5.80;;;;;;;18.02;100.00;99361.94;10401200;28;20180;-75
2021/07/19 00:39:10;;;;;;;6.93;5.47;;;;;;;17.93;100.00;99364.63;10415774;28;20689;-78
2021/07/19 00:44:29;;;;;;;7.27;6.33;;;;;;;17.90;100.00;99362.72;10414622;28;20302;-80
2021/07/19 00:49:48;;;;;;;7.60;6.23;;;;;;;17.80;100.00;99366.56;10418039;28;20211;-76
2021/07/19 00:55:09;;;;;;;10.70;5.57;;;;;;;17.63;100.00;99368.63;10426026;28;20615;-81
2021/07/19 01:00:29;;;;;;;6.50;5.87;;;;;;;17.50;100.00;99355.88;10414107;28;20176;-79
2021/07/19 01:05:49;;;;;;;6.53;5.47;;;;;;;17.56;100.00;99347.81;10415092;28;20176;-78
2021/07/19 01:11:08;;;;;;;6.37;5.70;;;;;;;17.43;100.00;99344.97;10399557;28;20572;-77
2021/07/19 01:16:27;;;;;;;6.93;5.50;;;;;;;17.33;100.00;99348.81;10398573;28;20180;-77
2021/07/19 01:22:17;;;;;;;11.37;6.53;;;;;;;17.44;100.00;99349.31;10402048;28;20192;-78
2021/07/19 01:27:48;;;;;;;6.63;5.70;;;;;;;17.36;100.00;99344.34;10452650;28;20253;-78
2021/07/19 01:33:08;;;;;;;5.53;5.03;;;;;;;17.22;100.00;99339.16;10455103;28;20211;-75
2021/07/19 01:38:28;;;;;;;5.40;5.00;;;;;;;17.19;100.00;99349.16;10444802;28;20194;-77
2021/07/19 01:43:47;;;;;;;6.43;5.80;;;;;;;17.23;100.00;99351.84;10462657;28;20176;-77
2021/07/19 01:49:08;;;;;;;5.87;4.80;;;;;;;17.19;100.00;99342.78;10463742;28;20203;-75
2021/07/19 01:54:29;;;;;;;6.40;5.30;;;;;;;17.21;100.00;99341.13;10423878;28;20223;-76
2021/07/19 01:59:49;;;;;;;8.27;5.60;;;;;;;17.00;100.00;99341.69;10405796;28;20184;-77
2021/07/19 02:05:10;;;;;;;6.27;5.63;;;;;;;16.91;100.00;99343.53;10422038;28;20179;-75
2021/07/19 02:10:30;;;;;;;6.47;5.87;;;;;;;16.96;100.00;99340.22;10421390;28;20211;-77
2021/07/19 02:15:52;;;;;;;10.03;6.07;;;;;;;16.93;100.00;99350.22;10420327;28;20229;-77
2021/07/19 02:21:11;;;;;;;6.73;5.30;;;;;;;16.85;100.00;99346.03;10406191;28;20179;-75
2021/07/19 02:26:30;;;;;;;8.77;5.20;;;;;;;16.79;100.00;99353.34;10455992;28;20183;-76
2021/07/19 02:31:50;;;;;;;5.20;4.80;;;;;;;16.73;100.00;99351.50;10460485;28;20235;-75
2021/07/19 02:37:09;;;;;;;5.30;4.90;;;;;;;16.64;100.00;99351.34;10446880;28;20225;-78
2021/07/19 02:42:29;;;;;;;6.00;5.37;;;;;;;16.67;100.00;99360.78;10445383;28;20179;-76
2021/07/19 02:47:49;;;;;;;9.60;6.47;;;;;;;16.57;100.00;99351.50;10446027;28;20266;-75
2021/07/19 02:53:12;;;;;;;9.27;6.03;;;;;;;16.63;100.00;99354.56;10430560;28;20686;-75
2021/07/19 02:58:32;;;;;;;8.20;6.00;;;;;;;16.47;100.00;99352.53;10418448;28;20180;-77
2021/07/19 03:03:55;;;;;;;6.73;5.90;;;;;;;16.43;100.00;99353.81;10419624;28;20537;-76
2021/07/19 03:09:18;;;;;;;6.83;6.20;;;;;;;16.39;100.00;99364.25;10404306;28;20291;-78
2021/07/19 03:14:39;;;;;;;8.30;6.73;;;;;;;16.32;100.00;99361.59;10417941;28;20176;-79
2021/07/19 03:19:59;;;;;;;12.27;6.00;;;;;;;16.25;100.00;99359.75;10404177;28;20196;-80
2021/07/19 03:25:23;;;;;;;7.80;7.10;;;;;;;16.20;100.00;99363.00;10436525;28;20183;-75
2021/07/19 03:30:43;;;;;;;7.13;6.47;;;;;;;16.25;100.00;99356.97;10415706;28;20227;-79
2021/07/19 03:36:04;;;;;;;9.50;6.33;;;;;;;16.30;100.00;99361.25;10418288;28;20204;-77
2021/07/19 03:41:24;;;;;;;7.60;5.77;;;;;;;16.21;100.00;99374.91;10418211;28;20842;-78
2021/07/19 03:46:44;;;;;;;13.40;5.40;;;;;;;16.15;100.00;99374.63;10415722;28;20176;-79
2021/07/19 03:52:04;;;;;;;10.63;5.23;;;;;;;16.12;100.00;99375.47;10410957;28;20208;-79
2021/07/19 03:57:24;;;;;;;7.73;5.90;;;;;;;16.08;100.00;99374.78;10374368;28;20185;-78
2021/07/19 04:02:49;;;;;;;6.13;5.60;;;;;;;16.08;100.00;99380.34;10374841;28;20619;-82
2021/07/19 04:08:09;;;;;;;6.53;5.90;;;;;;;16.16;100.00;99390.09;10375371;28;20181;-80
2021/07/19 04:13:29;;;;;;;6.10;5.53;;;;;;;16.16;100.00;99394.84;10373894;28;20200;-80
2021/07/19 04:18:52;;;;;;;6.60;5.60;;;;;;;16.32;100.00;99394.91;10375068;28;20275;-79
2021/07/19 04:24:12;;;;;;;7.33;5.73;;;;;;;16.26;100.00;99402.97;10400815;28;20184;-78
2021/07/19 04:29:31;;;;;;;7.83;6.10;;;;;;;16.17;100.00;99388.88;10434053;28;20257;-78
2021/07/19 04:34:50;;;;;;;12.13;7.17;;;;;;;16.32;100.00;99400.47;10431302;28;20184;-77
2021/07/19 04:40:10;;;;;;;6.10;5.60;;;;;;;16.30;100.00;99392.56;10400861;28;20188;-78
2021/07/19 04:45:29;;;;;;;8.00;7.03;;;;;;;16.33;100.00;99396.47;10399495;28;20184;-76
2021/07/19 04:50:49;;;;;;;6.60;5.93;;;;;;;16.51;100.00;99394.91;10415302;28;20219;-76
2021/07/19 04:56:09;;;;;;;7.13;6.03;;;;;;;16.81;100.00;99400.91;10415497;28;20604;-78
2021/07/19 05:01:29;;;;;;;7.77;6.00;;;;;;;17.05;100.00;99398.75;10399063;28;20176;-78
2021/07/19 05:06:51;;;;;;;7.00;6.33;;;;;;;17.20;100.00;99398.00;10433782;28;20179;-76
2021/07/19 05:12:11;;;;;;;11.60;6.27;;;;;;;17.41;100.00;99391.91;10439437;28;21085;-75
2021/07/19 05:17:32;;;;;;;12.13;6.83;;;;;;;17.79;100.00;99392.84;10440903;28;20187;-78
2021/07/19 05:22:54;;;;;;;10.40;7.30;;;;;;;18.17;100.00;99390.97;10455608;28;20575;-78
2021/07/19 05:28:14;;;;;;;9.80;6.37;;;;;;;18.63;100.00;99397.53;10439486;28;20215;-79
2021/07/19 05:33:33;;;;;;;7.90;7.10;;;;;;;18.96;100.00;99386.91;10448409;28;20184;-76
2021/07/19 05:38:52;;;;;;;8.03;6.93;;;;;;;19.09;100.00;99384.91;10399310;28;20199;-75
2021/07/19 05:44:11;;;;;;;7.50;6.90;;;;;;;19.14;100.00;99395.50;10413178;28;20176;-77
2021/07/19 05:49:30;;;;;;;7.73;7.03;;;;;;;19.14;100.00;99387.13;10399018;28;20588;-78
2021/07/19 05:54:49;;;;;;;8.63;6.93;;;;;;;19.23;100.00;99393.59;10414178;28;20180;-78
2021/07/19 06:00:11;;;;;;;9.70;8.00;;;;;;;19.63;100.00;99384.22;10397767;28;20207;-78
2021/07/19 06:05:31;;;;;;;7.60;6.53;;;;;;;20.17;100.00;99377.06;10424123;28;20262;-78
2021/07/19 06:10:50;;;;;;;6.57;6.07;;;;;;;20.52;100.00;99375.69;10454709;28;20203;-80
2021/07/19 06:16:09;;;;;;;7.40;6.80;;;;;;;20.92;99.48;99382.09;10453779;28;20172;-79
2021/07/19 06:21:28;;;;;;;15.03;6.30;;;;;;;20.97;97.96;99378.69;10455060;28;20191;-78
2021/07/19 06:26:47;;;;;;;8.63;5.27;;;;;;;20.94;95.50;99379.63;10462504;28;20183;-78
2021/07/19 06:32:07;;;;;;;8.47;5.73;;;;;;;21.13;94.51;99392.44;10461469;28;20259;-77
2021/07/19 06:37:26;;;;;;;12.53;6.20;;;;;;;21.80;88.68;99394.75;10408822;28;20215;-75
2021/07/19 06:42:46;;;;;;;7.43;5.73;;;;;;;21.83;88.17;99398.63;10449404;28;20294;-77
2021/07/19 06:48:06;;;;;;;6.30;4.70;;;;;;;22.28;85.68;99402.16;10461394;28;20187;-76
2021/07/19 06:53:25;;;;;;;5.83;4.93;;;;;;;22.23;81.06;99405.56;10460826;28;20764;-77
2021/07/19 06:58:44;;;;;;;5.53;5.03;;;;;;;21.71;83.26;99405.94;10459852;28;20199;-76
2021/07/19 07:04:03;;;;;;;6.17;5.30;;;;;;;21.98;83.49;99400.31;10461083;28;20526;-75
2021/07/19 07:09:22;;;;;;;7.50;5.40;;;;;;;22.69;80.02;99401.47;10419333;28;20282;-77
2021/07/19 07:14:41;;;;;;;5.70;4.93;;;;;;;23.28;77.55;99392.16;10403140;28;20666;-78
2021/07/19 07:20:00;;;;;;;11.13;5.07;;;;;;;23.68;74.40;99394.06;10419175;28;20168;-77
2021/07/19 07:25:18;;;;;;;6.10;5.17;;;;;;;23.67;73.20;99397.34;10418826;28;20198;-76
2021/07/19 07:30:38;;;;;;;5.07;4.67;;;;;;;24.13;73.02;99390.91;10416739;28;20311;-78
2021/07/19 07:35:57;;;;;;;9.47;5.97;;;;;;;24.22;71.42;99396.44;10430298;28;20207;-79
2021/07/19 07:41:17;;;;;;;8.43;5.30;;;;;;;24.52;69.29;99403.66;10444048;28;20578;-78
2021/07/19 07:46:37;;;;;;;5.80;5.00;;;;;;;24.65;67.51;99393.66;10458129;28;20198;-78
2021/07/19 07:51:58;;;;;;;4.60;4.23;;;;;;;24.71;67.59;99391.72;10458849;28;20206;-75
2021/07/19 07:57:17;;;;;;;7.40;5.00;;;;;;;24.43;66.40;99400.94;10442545;28;20658;-75
2021/07/19 08:02:36;;;;;;;11.00;4.33;;;;;;;24.55;66.90;99399.88;10443491;28;20199;-76
2021/07/19 08:07:55;;;;;;;10.50;5.70;;;;;;;24.98;65.59;99399.81;10411638;28;20176;-77
2021/07/19 08:13:14;;;;;;;9.47;5.07;;;;;;;25.42;63.12;99395.66;10415146;28;20200;-77
2021/07/19 08:18:32;;;;;;;5.73;5.10;;;;;;;25.67;61.86;99392.13;10401863;28;20266;-77
2021/07/19 08:23:51;;;;;;;7.73;4.50;;;;;;;25.69;62.31;99386.00;10401561;28;20168;-77
2021/07/19 08:29:10;;;;;;;9.20;4.90;;;;;;;25.41;61.09;99394.09;10399821;28;20326;-76
2021/07/19 08:34:29;;;;;;;4.57;4.10;;;;;;;25.19;61.59;99387.38;10404027;28;20223;-77
2021/07/19 08:39:48;;;;;;;7.80;5.37;;;;;;;25.56;62.01;99377.91;10457195;28;21196;-77
2021/07/19 08:45:10;;;;;;;5.63;3.93;;;;;;;25.95;59.87;99376.34;10440428;28;20179;-77
2021/07/19 08:50:30;;;;;;;5.10;4.70;;;;;;;26.12;58.94;99368.84;10456688;28;20286;-76
2021/07/19 08:55:53;;;;;;;4.70;4.27;;;;;;;26.76;58.00;99370.75;10456719;28;20556;-75
2021/07/19 09:01:12;;;;;;;7.63;5.47;;;;;;;27.75;55.34;99369.31;10440072;28;20622;-76
2021/07/19 09:06:32;;;;;;;7.73;4.60;;;;;;;28.51;52.91;99370.81;10436410;28;20188;-76
2021/07/19 09:11:51;;;;;;;5.40;4.90;;;;;;;28.42;51.52;99365.41;10399545;28;20211;-76
2021/07/19 09:17:21;;;;;;;4.07;3.77;;;;;;;28.96;52.40;99366.75;10415028;28;20635;-75
2021/07/19 09:22:40;;;;;;;7.07;4.50;;;;;;;29.15;49.71;99357.19;10399721;28;20180;-76
2021/07/19 09:28:05;;;;;;;6.57;4.73;;;;;;;28.93;50.37;99348.69;10414363;28;20208;-76
2021/07/19 09:33:24;;;;;;;6.77;5.03;;;;;;;29.73;47.81;99347.44;10414124;28;20199;-78
2021/07/19 09:38:43;;;;;;;5.10;4.13;;;;;;;29.51;47.74;99339.84;10414476;28;20191;-76
2021/07/19 09:44:08;;;;;;;7.57;4.07;;;;;;;29.64;49.78;99336.44;10413298;28;20560;-76
2021/07/19 09:49:30;;;;;;;9.00;5.00;;;;;;;30.47;47.99;99332.59;10399157;28;20239;-76
2021/07/19 09:54:49;;;;;;;5.17;4.77;;;;;;;31.00;43.63;99318.44;10414278;28;20172;-75
2021/07/19 10:00:08;;;;;;;4.27;3.97;;;;;;;30.71;46.71;99324.13;10441925;28;20232;-77
2021/07/19 10:05:29;;;;;;;10.60;4.43;;;;;;;30.62;44.97;99329.38;10463413;28;20550;-76
2021/07/19 10:10:48;;;;;;;4.73;4.33;;;;;;;30.30;44.46;99320.56;10447502;28;20207;-76
2021/07/19 10:16:08;;;;;;;6.70;5.10;;;;;;;31.40;44.33;99308.19;10446673;28;20195;-78
2021/07/19 10:21:31;;;;;;;4.93;4.57;;;;;;;32.40;41.71;99303.47;10447603;28;20652;-76
2021/07/19 10:26:50;;;;;;;5.33;4.83;;;;;;;31.99;39.36;99300.94;10443219;28;20449;-77
2021/07/19 10:32:10;;;;;;;8.80;4.70;;;;;;;30.21;43.39;99312.38;10420197;28;20227;-76
2021/07/19 10:37:34;;;;;;;5.83;5.30;;;;;;;29.48;47.58;99297.56;10420486;28;20196;-79
2021/07/19 10:43:04;;;;;;;6.40;4.67;;;;;;;30.76;43.95;99297.75;10419472;28;20176;-79
2021/07/19 10:48:23;;;;;;;6.00;5.33;;;;;;;31.81;42.51;99289.56;10405369;28;20177;-77
2021/07/19 10:53:42;;;;;;;6.37;5.77;;;;;;;32.03;39.67;99286.38;10420261;28;20217;-77
2021/07/19 10:59:02;;;;;;;6.07;5.47;;;;;;;32.71;38.98;99280.69;10424814;28;20203;-77
2021/07/19 11:04:23;;;;;;;13.70;5.80;;;;;;;33.50;35.93;99278.09;10461009;28;20206;-78
2021/07/19 11:09:42;;;;;;;5.80;5.40;;;;;;;34.13;36.46;99277.78;10445431;28;20661;-79
2021/07/19 11:15:08;;;;;;;6.10;5.60;;;;;;;33.76;36.55;99271.59;10444207;28;20171;-77
2021/07/19 11:20:39;;;;;;;6.63;5.17;;;;;;;33.70;37.82;99263.16;10460465;28;20569;-79
2021/07/19 11:26:01;;;;;;;5.97;5.13;;;;;;;34.01;36.97;99247.91;10460176;28;20179;-78
2021/07/19 11:31:28;;;;;;;5.47;5.07;;;;;;;34.34;36.06;99247.13;10417438;28;20652;-78
2021/07/19 11:36:48;;;;;;;6.77;6.17;;;;;;;34.45;37.31;99247.59;10418653;28;20203;-78
2021/07/19 11:42:07;;;;;;;7.80;7.20;;;;;;;35.43;33.06;99249.09;10402043;28;20180;-77
2021/07/19 11:47:26;;;;;;;11.90;6.70;;;;;;;35.42;33.16;99247.59;10403198;28;20179;-77
2021/07/19 11:52:47;;;;;;;6.93;6.33;;;;;;;34.84;33.10;99243.75;10417251;28;20202;-78
2021/07/19 11:58:07;;;;;;;7.67;7.07;;;;;;;34.27;34.77;99237.16;10432326;28;20178;-79
2021/07/19 12:03:29;;;;;;;9.03;6.20;;;;;;;34.98;35.89;99231.66;10443453;28;20175;-76
2021/07/19 12:08:54;;;;;;;7.67;7.07;;;;;;;33.79;35.46;99237.00;10443462;28;20629;-79
2021/07/19 12:14:15;;;;;;;8.70;7.20;;;;;;;32.25;38.35;99243.38;10445822;28;20641;-77
2021/07/19 12:19:34;;;;;;;7.50;6.90;;;;;;;31.90;41.50;99240.81;10416377;28;20176;-78
2021/07/19 12:24:55;;;;;;;10.50;8.10;;;;;;;32.68;37.88;99236.16;10416697;28;20183;-76
2021/07/19 12:30:14;;;;;;;7.50;6.80;;;;;;;32.82;36.46;99235.66;10399346;28;20227;-77
2021/07/19 12:35:34;;;;;;;10.70;8.27;;;;;;;32.75;36.40;99232.66;10401349;28;20290;-78
2021/07/19 12:40:53;;;;;;;9.27;7.77;;;;;;;32.55;40.36;99227.59;10400964;28;20176;-79
2021/07/19 12:46:13;;;;;;;9.20;8.30;;;;;;;33.43;35.81;99226.63;10412697;28;20191;-77
2021/07/19 12:51:33;;;;;;;8.67;7.77;;;;;;;33.62;36.48;99221.59;10426382;28;20673;-80
2021/07/19 12:56:52;;;;;;;11.20;9.17;;;;;;;32.71;38.28;99218.00;10415586;28;20204;-79
2021/07/19 13:02:16;;;;;;;9.57;8.60;;;;;;;32.65;37.83;99214.47;10415410;28;20172;-77
2021/07/19 13:07:37;;;;;;;10.20;9.20;;;;;;;31.98;39.19;99213.25;10400113;28;20176;-78
2021/07/19 13:13:02;;;;;;;10.80;9.13;;;;;;;32.49;37.91;99202.03;10413342;28;20211;-79
2021/07/19 13:18:20;;;;;;;12.80;9.87;;;;;;;33.42;37.53;99196.56;10416365;28;20562;-75
2021/07/19 13:23:40;;;;;;;11.27;10.07;;;;;;;34.51;34.61;99213.16;10440266;28;20178;-78
2021/07/19 13:29:08;;;;;;;12.87;10.57;;;;;;;33.82;34.80;99198.78;10454260;28;20233;-78
2021/07/19 13:34:27;;;;;;;12.10;10.97;;;;;;;33.50;34.94;99197.44;10445148;28;20194;-78
2021/07/19 13:39:46;;;;;;;12.93;10.83;;;;;;;33.19;37.90;99191.91;10449211;28;20174;-78
2021/07/19 13:45:10;;;;;;;11.90;10.67;;;;;;;32.99;38.54;99193.34;10462862;28;20618;-78
2021/07/19 13:50:29;;;;;;;13.20;11.90;;;;;;;33.65;37.68;99189.06;10444688;28;20238;-79
2021/07/19 13:55:53;;;;;;;13.20;11.87;;;;;;;33.39;35.54;99180.56;10407463;28;20179;-79
2021/07/19 14:01:13;;;;;;;102.13;32.70;;;;;;;33.36;38.67;99188.13;10421049;28;20258;-78
2021/07/19 14:06:32;;;;;;;45.07;23.27;;;;;;;34.10;35.25;99186.72;10422015;28;20171;-78
2021/07/19 14:11:51;;;;;;;16.30;14.67;;;;;;;33.26;36.26;99192.00;10406573;28;20298;-78
2021/07/19 14:17:10;;;;;;;19.20;16.20;;;;;;;33.43;37.16;99196.03;10406713;28;20184;-79
2021/07/19 14:22:29;;;;;;;32.13;19.33;;;;;;;33.19;36.36;99194.75;10441186;28;20629;-78
2021/07/19 14:27:49;;;;;;;21.67;16.17;;;;;;;33.41;35.66;99190.09;10460541;28;20231;-77
2021/07/19 14:33:08;;;;;;;16.93;13.90;;;;;;;33.67;35.11;99183.56;10405086;28;20254;-78
2021/07/19 14:38:26;;;;;;;15.63;14.13;;;;;;;32.57;36.28;99182.22;10420812;28;20180;-76
2021/07/19 14:43:46;;;;;;;20.47;15.27;;;;;;;33.02;35.89;99165.81;10418719;28;20176;-78
2021/07/19 14:49:05;;;;;;;17.40;14.30;;;;;;;33.00;35.11;99166.34;10411574;28;20253;-79
2021/07/19 14:54:24;;;;;;;16.17;14.57;;;;;;;33.08;36.30;99167.22;10461306;28;20567;-77
2021/07/19 14:59:43;;;;;;;19.40;16.10;;;;;;;32.63;35.95;99165.81;10444817;28;20183;-76
2021/07/19 15:05:03;;;;;;;18.60;15.57;;;;;;;32.43;35.55;99157.13;10461024;28;20183;-75
2021/07/19 15:10:24;;;;;;;21.63;16.60;;;;;;;32.67;35.21;99161.31;10443945;28;20210;-76
2021/07/19 15:15:43;;;;;;;19.27;16.90;;;;;;;33.14;36.61;99164.25;10448050;28;20183;-76
2021/07/19 15:21:02;;;;;;;17.10;15.50;;;;;;;33.25;34.86;99155.47;10419770;28;20538;-76
2021/07/19 15:26:21;;;;;;;18.37;16.57;;;;;;;33.01;33.35;99147.91;10418813;28;20180;-75
2021/07/19 15:31:40;;;;;;;20.53;16.83;;;;;;;32.65;35.35;99158.25;10428811;28;20227;-76
2021/07/19 15:36:59;;;;;;;17.80;15.90;;;;;;;32.80;35.53;99163.38;10459615;28;20543;-76
2021/07/19 15:42:18;;;;;;;17.80;16.10;;;;;;;32.24;35.68;99162.88;10458066;28;20622;-75
2021/07/19 15:47:38;;;;;;;18.97;16.97;;;;;;;32.33;35.00;99151.06;10449835;28;20184;-76
2021/07/19 15:52:57;;;;;;;18.77;16.80;;;;;;;31.53;35.77;99146.94;10417282;28;20203;-75
2021/07/19 15:58:16;;;;;;;18.60;16.63;;;;;;;31.52;36.72;99148.25;10415419;28;20621;-77
2021/07/19 16:03:35;;;;;;;19.60;17.30;;;;;;;31.48;37.38;99142.09;10417461;28;20177;-75
2021/07/19 16:08:56;;;;;;;18.97;15.90;;;;;;;31.11;36.69;99138.47;10417256;28;20180;-76
2021/07/19 16:14:15;;;;;;;17.80;14.90;;;;;;;30.92;37.32;99146.22;10416643;28;20180;-75
2021/07/19 16:19:34;;;;;;;15.40;13.90;;;;;;;30.20;38.31;99149.06;10442632;28;20176;-77
2021/07/19 16:24:53;;;;;;;21.03;14.97;;;;;;;30.16;37.86;99142.88;10442509;28;20175;-76
2021/07/19 16:30:12;;;;;;;16.43;14.73;;;;;;;30.19;36.84;99139.00;10440557;28;20313;-76
2021/07/19 16:35:31;;;;;;;17.70;15.80;;;;;;;29.56;39.17;99129.19;10457244;28;20286;-74
2021/07/19 16:40:50;;;;;;;16.03;14.43;;;;;;;29.47;39.59;99137.25;10451791;28;20215;-79
2021/07/19 16:46:09;;;;;;;17.13;15.23;;;;;;;29.00;42.46;99126.41;10453740;28;20192;-74
2021/07/19 16:51:28;;;;;;;16.00;14.30;;;;;;;28.24;43.06;99130.25;10456501;28;20203;-75
2021/07/19 16:56:49;;;;;;;17.10;15.30;;;;;;;27.96;43.40;99129.50;10441645;28;20532;-76
2021/07/19 17:02:08;;;;;;;16.13;14.43;;;;;;;27.53;44.21;99126.13;10456850;28;20254;-75
2021/07/19 17:07:27;;;;;;;18.43;15.73;;;;;;;27.09;45.62;99135.81;10455910;28;20176;-75
2021/07/19 17:12:47;;;;;;;20.20;14.83;;;;;;;26.80;46.60;99131.31;10422943;28;20306;-75
2021/07/19 17:18:05;;;;;;;19.43;15.20;;;;;;;26.44;47.93;99131.41;10414523;28;20176;-79
2021/07/19 17:23:25;;;;;;;18.90;15.50;;;;;;;26.14;47.98;99132.97;10399479;28;20184;-75
2021/07/19 17:28:44;;;;;;;18.60;14.30;;;;;;;26.09;48.81;99138.59;10397909;28;20220;-76
2021/07/19 17:34:04;;;;;;;22.63;14.80;;;;;;;25.97;49.20;99142.59;10413980;28;20199;-77
2021/07/19 17:39:23;;;;;;;17.33;14.13;;;;;;;25.96;48.80;99141.06;10401454;28;20531;-75
2021/07/19 17:44:43;;;;;;;17.30;13.30;;;;;;;25.53;50.55;99142.19;10413375;28;20196;-74
2021/07/19 17:50:03;;;;;;;15.83;14.20;;;;;;;25.28;51.08;99147.84;10399076;28;20199;-74
2021/07/19 17:55:26;;;;;;;19.07;14.50;;;;;;;25.28;51.43;99147.84;10414168;28;20557;-78
2021/07/19 18:00:46;;;;;;;17.13;13.93;;;;;;;24.87;51.13;99142.75;10412949;28;20172;-77
2021/07/19 18:06:05;;;;;;;17.93;14.50;;;;;;;24.72;51.83;99156.09;10414000;28;20172;-77
2021/07/19 18:11:24;;;;;;;17.30;13.80;;;;;;;24.76;52.17;99159.50;10416736;28;20242;-78
2021/07/19 18:16:43;;;;;;;19.37;13.67;;;;;;;24.68;52.81;99161.19;10453966;28;20188;-76
2021/07/19 18:33:25;;;;;;;18.57;13.30;;;;;;;23.88;55.57;99157.41;10461590;28;20233;-78
2021/07/19 18:38:47;;;;;;;18.40;13.80;;;;;;;23.56;56.09;99156.34;10462233;28;20184;-75
2021/07/19 18:44:06;;;;;;;16.40;12.33;;;;;;;23.40;57.65;99162.44;10461008;28;20191;-77
2021/07/19 18:49:25;;;;;;;23.70;14.20;;;;;;;23.23;58.59;99159.81;10446755;28;20203;-76
2021/07/19 18:54:45;;;;;;;17.37;13.67;;;;;;;23.10;58.71;99164.94;10460770;28;20183;-76
2021/07/19 19:00:07;;;;;;;22.30;14.53;;;;;;;22.85;60.36;99171.03;10444901;28;20630;-77
2021/07/19 19:05:26;;;;;;;15.67;12.30;;;;;;;22.71;60.63;99183.75;10461225;28;20536;-77
2021/07/19 19:10:45;;;;;;;13.43;11.93;;;;;;;22.49;61.06;99174.06;10460624;28;20232;-77
2021/07/19 19:16:05;;;;;;;17.47;12.80;;;;;;;22.33;61.82;99180.09;10459601;28;20254;-78
2021/07/19 19:21:24;;;;;;;15.10;12.13;;;;;;;22.10;62.50;99196.81;10460488;28;20191;-77
2021/07/19 19:26:43;;;;;;;17.67;12.50;;;;;;;21.84;63.85;99206.91;10426587;28;20184;-77
2021/07/19 19:32:03;;;;;;;13.60;10.90;;;;;;;21.75;63.76;99215.31;10402888;28;20227;-77
2021/07/19 19:37:22;;;;;;;14.47;11.63;;;;;;;21.61;64.10;99209.59;10403862;28;20200;-77
2021/07/19 19:42:41;;;;;;;12.90;10.60;;;;;;;21.40;65.73;99230.91;10417508;28;20747;-78
2021/07/19 19:48:00;;;;;;;16.20;11.10;;;;;;;21.33;65.50;99233.22;10418171;28;20172;-76
2021/07/19 19:53:19;;;;;;;25.93;11.07;;;;;;;21.24;65.68;99236.06;10425247;28;20297;-76
2021/07/19 19:58:38;;;;;;;15.63;11.80;;;;;;;21.16;65.59;99240.41;10457688;28;20524;-77
2021/07/19 20:03:58;;;;;;;16.07;8.93;;;;;;;21.01;66.55;99236.66;10443850;28;20179;-78
2021/07/19 20:09:17;;;;;;;17.10;10.90;;;;;;;21.03;67.24;99250.97;10443456;28;20179;-79
2021/07/19 20:14:36;;;;;;;10.90;9.83;;;;;;;20.92;66.90;99247.84;10457395;28;20262;-77
2021/07/19 20:19:55;;;;;;;14.97;9.53;;;;;;;20.72;67.19;99261.44;10458260;28;20602;-77
2021/07/19 20:25:16;;;;;;;9.60;8.50;;;;;;;20.46;66.21;99259.38;10419160;28;20216;-78
2021/07/19 20:30:37;;;;;;;18.17;10.13;;;;;;;20.29;67.15;99269.25;10414683;28;20232;-77
2021/07/19 20:35:58;;;;;;;11.63;7.17;;;;;;;20.19;67.10;99274.00;10416350;28;20176;-76
2021/07/19 20:41:17;;;;;;;25.07;9.67;;;;;;;20.00;67.68;99284.75;10400894;28;20212;-78
2021/07/19 20:46:36;;;;;;;13.33;8.60;;;;;;;19.82;68.54;99282.63;10399877;28;20180;-79
2021/07/19 20:51:56;;;;;;;18.27;8.50;;;;;;;19.71;69.00;99282.22;10415705;28;20207;-78
2021/07/19 20:57:15;;;;;;;12.80;8.97;;;;;;;19.63;70.00;99286.50;10399420;28;20263;-76
2021/07/19 21:02:34;;;;;;;11.07;8.37;;;;;;;19.47;70.83;99288.72;10400572;28;20176;-75
2021/07/19 21:07:54;;;;;;;10.40;8.10;;;;;;;19.43;70.90;99300.00;10415281;28;20180;-77
2021/07/19 21:13:13;;;;;;;17.93;9.03;;;;;;;19.04;72.72;99305.38;10413681;28;20203;-75
2021/07/19 21:18:32;;;;;;;13.50;8.60;;;;;;;18.97;73.14;99313.97;10415118;28;20184;-76
2021/07/19 21:23:51;;;;;;;11.37;8.87;;;;;;;18.91;72.40;99309.41;10429058;28;20637;-77
2021/07/19 21:29:11;;;;;;;12.17;8.47;;;;;;;18.88;72.93;99313.09;10454480;28;20219;-76
2021/07/19 21:34:30;;;;;;;11.73;8.70;;;;;;;18.88;72.96;99313.09;10455459;28;20278;-76
2021/07/19 21:39:48;;;;;;;16.33;8.57;;;;;;;18.92;73.30;99317.31;10455970;28;20266;-77
2021/07/19 21:45:08;;;;;;;14.37;8.40;;;;;;;18.98;73.18;99315.50;10439448;28;20258;-76
2021/07/19 21:50:27;;;;;;;11.80;8.67;;;;;;;18.90;73.59;99305.81;10455566;28;20207;-76
2021/07/19 21:55:46;;;;;;;8.20;7.10;;;;;;;18.92;73.54;99308.19;10427765;28;20183;-76
2021/07/19 22:01:05;;;;;;;11.10;9.10;;;;;;;18.81;73.92;99316.13;10406221;28;20255;-77
2021/07/19 22:06:24;;;;;;;12.33;8.60;;;;;;;18.70;74.48;99315.66;10407203;28;20658;-77
2021/07/19 22:11:44;;;;;;;11.10;8.00;;;;;;;18.57;75.07;99318.50;10406712;28;20698;-77
2021/07/19 22:17:03;;;;;;;12.70;7.80;;;;;;;18.44;75.52;99316.94;10421440;28;20646;-76
2021/07/19 22:22:22;;;;;;;14.03;9.90;;;;;;;18.24;76.31;99315.59;10425346;28;20261;-78
2021/07/19 22:27:42;;;;;;;14.20;8.63;;;;;;;18.00;77.85;99319.88;10460929;28;20219;-78
2021/07/19 22:33:02;;;;;;;12.87;8.43;;;;;;;17.91;78.16;99325.31;10461784;28;20202;-77
2021/07/19 22:38:20;;;;;;;13.97;8.50;;;;;;;17.84;78.62;99329.06;10462420;28;20184;-78
2021/07/19 22:43:39;;;;;;;13.13;8.90;;;;;;;17.78;80.03;99321.69;10460910;28;20622;-76
2021/07/19 22:48:58;;;;;;;11.70;8.70;;;;;;;17.68;80.35;99318.00;10461963;28;20596;-76
2021/07/19 22:54:17;;;;;;;11.80;8.90;;;;;;;17.63;81.38;99314.97;10441586;28;20196;-77
2021/07/19 22:59:36;;;;;;;13.50;9.57;;;;;;;17.63;81.51;99312.19;10419081;28;20180;-76
2021/07/19 23:04:55;;;;;;;18.23;9.03;;;;;;;17.56;82.00;99306.06;10419703;28;20634;-75
2021/07/19 23:10:15;;;;;;;14.90;8.70;;;;;;;17.53;82.33;99318.06;10419645;28;20211;-78
2021/07/19 23:15:37;;;;;;;11.07;9.70;;;;;;;17.47;83.08;99317.03;10418522;28;20528;-76
2021/07/19 23:20:56;;;;;;;12.70;9.67;;;;;;;17.44;84.35;99313.16;10419470;28;20571;-76
2021/07/19 23:26:15;;;;;;;15.13;9.87;;;;;;;17.39;84.79;99324.78;10456909;28;20187;-74
2021/07/19 23:31:34;;;;;;;11.30;8.93;;;;;;;17.35;84.92;99324.13;10442804;28;20580;-78
2021/07/19 23:36:53;;;;;;;14.60;8.90;;;;;;;17.29;86.12;99320.28;10460074;28;20183;-77
2021/07/19 23:42:11;;;;;;;12.70;9.80;;;;;;;17.28;85.92;99315.97;10458439;28;20641;-78
2021/07/19 23:47:30;;;;;;;14.77;8.97;;;;;;;17.30;86.10;99321.84;10459606;28;20577;-80
2021/07/19 23:52:50;;;;;;;10.30;9.13;;;;;;;17.26;86.17;99321.16;10454885;28;20199;-75
2021/07/19 23:58:10;;;;;;;12.00;9.50;;;;;;;17.17;87.37;99322.97;10458009;28;20198;-78
